Terminal Aerodrome Forecast
Issued by NWS

Home | Current Version | Previous Version | Text Only | Print | Product List | Glossary On
Versions: 1 2 3 4 5 6 7 8 9 10 11 12 13 14 15 16 17 18 19
000
FTUS43 KSGF 022320
TAFJLN
TAF
KJLN 022320Z 0300/0324 34007KT P6SM OVC040
     FM030200 34004KT P6SM SKC
     FM030800 VRB03KT 5SM BR FEW030
      TEMPO 0309/0313 3SM BR FEW030
     FM031500 31005KT P6SM SCT070=

USA.gov is the U.S. government's official web portal to all federal, state and local government web resources and services.